sensor_id;sensor_type;location;lat;lon;timestamp;temperature;humidity
72591;SHT31;60625;51.212;5.952;2023-03-01T00:01:19;0.15;68.21
72591;SHT31;60625;51.212;5.952;2023-03-01T00:06:23;0.06;68.37
72591;SHT31;60625;51.212;5.952;2023-03-01T00:11:25;0.03;68.57
72591;SHT31;60625;51.212;5.952;2023-03-01T00:16:30;-0.04;68.71
72591;SHT31;60625;51.212;5.952;2023-03-01T00:21:36;-0.10;69.08
72591;SHT31;60625;51.212;5.952;2023-03-01T00:26:37;-0.16;69.39
72591;SHT31;60625;51.212;5.952;2023-03-01T00:31:37;-0.19;69.53
72591;SHT31;60625;51.212;5.952;2023-03-01T00:36:39;-0.23;69.60
72591;SHT31;60625;51.212;5.952;2023-03-01T00:41:40;-0.23;69.68
72591;SHT31;60625;51.212;5.952;2023-03-01T00:46:42;-0.23;69.75
72591;SHT31;60625;51.212;5.952;2023-03-01T00:51:42;-0.25;69.79
72591;SHT31;60625;51.212;5.952;2023-03-01T00:56:43;-0.26;69.86
72591;SHT31;60625;51.212;5.952;2023-03-01T01:01:43;-0.28;69.95
72591;SHT31;60625;51.212;5.952;2023-03-01T01:06:45;-0.28;69.94
72591;SHT31;60625;51.212;5.952;2023-03-01T01:11:48;-0.29;70.06
72591;SHT31;60625;51.212;5.952;2023-03-01T01:16:50;-0.32;70.32
72591;SHT31;60625;51.212;5.952;2023-03-01T01:21:51;-0.34;70.44
72591;SHT31;60625;51.212;5.952;2023-03-01T01:26:52;-0.36;70.46
72591;SHT31;60625;51.212;5.952;2023-03-01T01:31:53;-0.40;70.42
72591;SHT31;60625;51.212;5.952;2023-03-01T01:36:53;-0.41;70.50
72591;SHT31;60625;51.212;5.952;2023-03-01T01:41:54;-0.46;70.63
72591;SHT31;60625;51.212;5.952;2023-03-01T01:47:05;-0.47;70.75
72591;SHT31;60625;51.212;5.952;2023-03-01T01:52:22;-0.52;70.83
72591;SHT31;60625;51.212;5.952;2023-03-01T01:57:34;-0.56;70.90
72591;SHT31;60625;51.212;5.952;2023-03-01T02:02:41;-0.62;70.97
72591;SHT31;60625;51.212;5.952;2023-03-01T02:07:43;-0.64;71.03
72591;SHT31;60625;51.212;5.952;2023-03-01T02:12:45;-0.69;71.06
72591;SHT31;60625;51.212;5.952;2023-03-01T02:17:46;-0.72;71.17
72591;SHT31;60625;51.212;5.952;2023-03-01T02:22:46;-0.72;71.20
72591;SHT31;60625;51.212;5.952;2023-03-01T02:33:14;-0.79;71.29
72591;SHT31;60625;51.212;5.952;2023-03-01T02:38:14;-0.85;71.33
72591;SHT31;60625;51.212;5.952;2023-03-01T02:43:16;-0.91;71.46
72591;SHT31;60625;51.212;5.952;2023-03-01T02:48:19;-0.96;71.64
72591;SHT31;60625;51.212;5.952;2023-03-01T02:53:27;-1.01;71.72
72591;SHT31;60625;51.212;5.952;2023-03-01T02:59:12;-1.06;71.93
72591;SHT31;60625;51.212;5.952;2023-03-01T03:04:15;-1.11;72.11
72591;SHT31;60625;51.212;5.952;2023-03-01T03:09:20;-1.15;72.22
72591;SHT31;60625;51.212;5.952;2023-03-01T03:14:21;-1.18;72.43
72591;SHT31;60625;51.212;5.952;2023-03-01T03:19:22;-1.20;72.65
72591;SHT31;60625;51.212;5.952;2023-03-01T03:24:22;-1.23;72.63
72591;SHT31;60625;51.212;5.952;2023-03-01T03:29:23;-1.26;72.91
72591;SHT31;60625;51.212;5.952;2023-03-01T03:34:23;-1.30;72.91
72591;SHT31;60625;51.212;5.952;2023-03-01T03:39:24;-1.32;72.99
72591;SHT31;60625;51.212;5.952;2023-03-01T03:44:29;-1.33;73.04
72591;SHT31;60625;51.212;5.952;2023-03-01T03:49:29;-1.35;73.00
72591;SHT31;60625;51.212;5.952;2023-03-01T03:54:29;-1.39;73.10
72591;SHT31;60625;51.212;5.952;2023-03-01T03:59:30;-1.43;73.21
72591;SHT31;60625;51.212;5.952;2023-03-01T04:04:31;-1.49;73.39
72591;SHT31;60625;51.212;5.952;2023-03-01T04:09:31;-1.54;73.47
72591;SHT31;60625;51.212;5.952;2023-03-01T04:14:32;-1.60;73.68
72591;SHT31;60625;51.212;5.952;2023-03-01T04:19:33;-1.60;73.90
72591;SHT31;60625;51.212;5.952;2023-03-01T04:24:36;-1.62;73.92
72591;SHT31;60625;51.212;5.952;2023-03-01T04:29:37;-1.67;73.97
72591;SHT31;60625;51.212;5.952;2023-03-01T04:34:37;-1.69;74.15
72591;SHT31;60625;51.212;5.952;2023-03-01T04:39:38;-1.70;74.35
72591;SHT31;60625;51.212;5.952;2023-03-01T04:44:45;-1.71;74.29
72591;SHT31;60625;51.212;5.952;2023-03-01T04:49:46;-1.71;74.29
72591;SHT31;60625;51.212;5.952;2023-03-01T04:54:46;-1.70;74.34
72591;SHT31;60625;51.212;5.952;2023-03-01T04:59:47;-1.71;74.31
72591;SHT31;60625;51.212;5.952;2023-03-01T05:04:47;-1.75;74.30
72591;SHT31;60625;51.212;5.952;2023-03-01T05:09:48;-1.80;74.46
72591;SHT31;60625;51.212;5.952;2023-03-01T05:14:48;-1.83;74.54
72591;SHT31;60625;51.212;5.952;2023-03-01T05:19:51;-1.86;74.55
72591;SHT31;60625;51.212;5.952;2023-03-01T05:24:51;-1.89;74.69
72591;SHT31;60625;51.212;5.952;2023-03-01T05:29:54;-1.90;74.83
72591;SHT31;60625;51.212;5.952;2023-03-01T05:34:55;-1.92;74.96
72591;SHT31;60625;51.212;5.952;2023-03-01T05:39:56;-1.95;75.04
72591;SHT31;60625;51.212;5.952;2023-03-01T05:44:56;-1.96;75.00
72591;SHT31;60625;51.212;5.952;2023-03-01T05:49:56;-1.97;75.01
72591;SHT31;60625;51.212;5.952;2023-03-01T05:54:57;-1.98;75.06
72591;SHT31;60625;51.212;5.952;2023-03-01T05:59:58;-2.00;75.04
72591;SHT31;60625;51.212;5.952;2023-03-01T06:04:58;-2.00;75.10
72591;SHT31;60625;51.212;5.952;2023-03-01T06:09:58;-2.01;75.16
72591;SHT31;60625;51.212;5.952;2023-03-01T06:14:59;-2.04;75.21
72591;SHT31;60625;51.212;5.952;2023-03-01T06:20:00;-2.08;75.25
72591;SHT31;60625;51.212;5.952;2023-03-01T06:25:01;-2.12;75.39
72591;SHT31;60625;51.212;5.952;2023-03-01T06:30:02;-2.15;75.46
72591;SHT31;60625;51.212;5.952;2023-03-01T06:35:04;-2.16;75.50
72591;SHT31;60625;51.212;5.952;2023-03-01T06:40:05;-2.18;75.59
72591;SHT31;60625;51.212;5.952;2023-03-01T06:45:09;-2.19;75.70
72591;SHT31;60625;51.212;5.952;2023-03-01T06:50:11;-2.14;75.77
72591;SHT31;60625;51.212;5.952;2023-03-01T06:55:12;-2.09;75.79
72591;SHT31;60625;51.212;5.952;2023-03-01T07:00:14;-2.05;75.74
72591;SHT31;60625;51.212;5.952;2023-03-01T07:05:15;-2.03;75.73
72591;SHT31;60625;51.212;5.952;2023-03-01T07:10:16;-1.99;75.77
72591;SHT31;60625;51.212;5.952;2023-03-01T07:15:16;-1.92;75.92
72591;SHT31;60625;51.212;5.952;2023-03-01T07:20:17;-1.85;75.94
72591;SHT31;60625;51.212;5.952;2023-03-01T07:25:22;-1.80;76.10
72591;SHT31;60625;51.212;5.952;2023-03-01T07:30:23;-1.73;76.28
72591;SHT31;60625;51.212;5.952;2023-03-01T07:35:27;-1.63;76.51
72591;SHT31;60625;51.212;5.952;2023-03-01T07:40:28;-1.52;76.69
72591;SHT31;60625;51.212;5.952;2023-03-01T07:45:29;-1.39;76.93
72591;SHT31;60625;51.212;5.952;2023-03-01T07:50:29;-1.26;77.15
72591;SHT31;60625;51.212;5.952;2023-03-01T07:55:30;-1.12;77.10
72591;SHT31;60625;51.212;5.952;2023-03-01T08:00:31;-0.97;76.87
72591;SHT31;60625;51.212;5.952;2023-03-01T08:05:31;-0.82;76.50
72591;SHT31;60625;51.212;5.952;2023-03-01T08:10:32;-0.65;76.14
72591;SHT31;60625;51.212;5.952;2023-03-01T08:15:32;-0.46;75.85
72591;SHT31;60625;51.212;5.952;2023-03-01T08:20:33;-0.27;75.22
72591;SHT31;60625;51.212;5.952;2023-03-01T08:25:33;-0.09;74.86
72591;SHT31;60625;51.212;5.952;2023-03-01T08:30:34;0.10;75.26
72591;SHT31;60625;51.212;5.952;2023-03-01T08:35:35;0.29;74.91
72591;SHT31;60625;51.212;5.952;2023-03-01T08:40:35;0.50;75.03
72591;SHT31;60625;51.212;5.952;2023-03-01T08:45:36;0.69;74.32
72591;SHT31;60625;51.212;5.952;2023-03-01T08:50:36;0.86;73.18
72591;SHT31;60625;51.212;5.952;2023-03-01T08:55:36;1.00;72.40
72591;SHT31;60625;51.212;5.952;2023-03-01T09:00:38;1.18;72.31
72591;SHT31;60625;51.212;5.952;2023-03-01T09:05:38;1.35;71.59
72591;SHT31;60625;51.212;5.952;2023-03-01T09:10:39;1.53;70.79
72591;SHT31;60625;51.212;5.952;2023-03-01T09:15:39;1.73;70.31
72591;SHT31;60625;51.212;5.952;2023-03-01T09:20:40;1.93;69.61
72591;SHT31;60625;51.212;5.952;2023-03-01T09:25:41;2.13;69.23
72591;SHT31;60625;51.212;5.952;2023-03-01T09:30:41;2.35;68.85
72591;SHT31;60625;51.212;5.952;2023-03-01T09:35:42;2.56;67.45
72591;SHT31;60625;51.212;5.952;2023-03-01T09:40:46;2.71;66.36
72591;SHT31;60625;51.212;5.952;2023-03-01T09:45:47;2.89;66.48
72591;SHT31;60625;51.212;5.952;2023-03-01T09:50:51;3.13;66.56
72591;SHT31;60625;51.212;5.952;2023-03-01T09:55:54;3.32;64.68
72591;SHT31;60625;51.212;5.952;2023-03-01T10:01:09;3.52;64.19
72591;SHT31;60625;51.212;5.952;2023-03-01T10:06:21;3.69;63.44
72591;SHT31;60625;51.212;5.952;2023-03-01T10:11:26;3.89;62.46
72591;SHT31;60625;51.212;5.952;2023-03-01T10:21:50;4.12;61.23
72591;SHT31;60625;51.212;5.952;2023-03-01T10:26:53;4.27;60.81
72591;SHT31;60625;51.212;5.952;2023-03-01T10:31:57;4.37;59.76
72591;SHT31;60625;51.212;5.952;2023-03-01T10:36:59;4.45;59.03
72591;SHT31;60625;51.212;5.952;2023-03-01T10:42:22;4.60;59.23
72591;SHT31;60625;51.212;5.952;2023-03-01T10:47:36;4.72;58.14
72591;SHT31;60625;51.212;5.952;2023-03-01T10:52:37;4.83;57.90
72591;SHT31;60625;51.212;5.952;2023-03-01T10:57:40;4.94;57.55
72591;SHT31;60625;51.212;5.952;2023-03-01T11:02:42;5.07;56.90
72591;SHT31;60625;51.212;5.952;2023-03-01T11:18:21;5.51;56.12
72591;SHT31;60625;51.212;5.952;2023-03-01T11:23:23;5.56;54.42
72591;SHT31;60625;51.212;5.952;2023-03-01T11:28:24;5.56;53.98
72591;SHT31;60625;51.212;5.952;2023-03-01T11:38:35;5.81;53.71
72591;SHT31;60625;51.212;5.952;2023-03-01T11:43:58;5.93;52.99
72591;SHT31;60625;51.212;5.952;2023-03-01T12:10:22;6.38;52.35
72591;SHT31;60625;51.212;5.952;2023-03-01T12:26:35;6.64;50.71
72591;SHT31;60625;51.212;5.952;2023-03-01T12:32:03;6.65;50.56
72591;SHT31;60625;51.212;5.952;2023-03-01T12:42:56;6.76;48.46
72591;SHT31;60625;51.212;5.952;2023-03-01T12:48:23;6.79;49.44
72591;SHT31;60625;51.212;5.952;2023-03-01T12:53:41;6.96;48.83
72591;SHT31;60625;51.212;5.952;2023-03-01T13:15:36;7.26;45.41
72591;SHT31;60625;51.212;5.952;2023-03-01T13:31:05;7.40;47.23
72591;SHT31;60625;51.212;5.952;2023-03-01T13:46:42;7.60;45.39
72591;SHT31;60625;51.212;5.952;2023-03-01T13:51:47;7.68;46.83
72591;SHT31;60625;51.212;5.952;2023-03-01T13:56:50;7.78;46.25
72591;SHT31;60625;51.212;5.952;2023-03-01T14:01:51;7.83;44.66
72591;SHT31;60625;51.212;5.952;2023-03-01T14:23:25;7.75;44.38
72591;SHT31;60625;51.212;5.952;2023-03-01T14:28:28;7.77;44.33
72591;SHT31;60625;51.212;5.952;2023-03-01T14:33:34;7.74;45.21
72591;SHT31;60625;51.212;5.952;2023-03-01T14:38:38;7.72;46.64
72591;SHT31;60625;51.212;5.952;2023-03-01T14:43:41;7.71;46.58
72591;SHT31;60625;51.212;5.952;2023-03-01T14:48:50;7.66;46.40
72591;SHT31;60625;51.212;5.952;2023-03-01T14:53:54;7.63;47.08
72591;SHT31;60625;51.212;5.952;2023-03-01T14:58:57;7.54;47.17
72591;SHT31;60625;51.212;5.952;2023-03-01T15:03:59;7.40;47.13
72591;SHT31;60625;51.212;5.952;2023-03-01T15:09:01;7.36;47.97
72591;SHT31;60625;51.212;5.952;2023-03-01T15:14:03;7.32;48.19
72591;SHT31;60625;51.212;5.952;2023-03-01T15:19:39;7.25;48.33
72591;SHT31;60625;51.212;5.952;2023-03-01T15:24:40;7.15;47.37
72591;SHT31;60625;51.212;5.952;2023-03-01T15:29:40;7.07;48.17
72591;SHT31;60625;51.212;5.952;2023-03-01T15:34:55;7.02;47.85
72591;SHT31;60625;51.212;5.952;2023-03-01T15:39:57;6.93;48.40
72591;SHT31;60625;51.212;5.952;2023-03-01T15:50:37;6.86;48.88
72591;SHT31;60625;51.212;5.952;2023-03-01T15:55:40;6.83;48.37
72591;SHT31;60625;51.212;5.952;2023-03-01T16:00:41;6.80;48.42
72591;SHT31;60625;51.212;5.952;2023-03-01T16:05:43;6.73;50.79
72591;SHT31;60625;51.212;5.952;2023-03-01T16:10:43;6.66;49.31
72591;SHT31;60625;51.212;5.952;2023-03-01T16:15:45;6.57;49.40
72591;SHT31;60625;51.212;5.952;2023-03-01T16:20:46;6.51;49.15
72591;SHT31;60625;51.212;5.952;2023-03-01T16:25:48;6.46;49.06
72591;SHT31;60625;51.212;5.952;2023-03-01T16:30:48;6.39;50.44
72591;SHT31;60625;51.212;5.952;2023-03-01T16:35:49;6.30;50.59
72591;SHT31;60625;51.212;5.952;2023-03-01T16:40:50;6.20;50.91
72591;SHT31;60625;51.212;5.952;2023-03-01T16:45:52;6.09;51.10
72591;SHT31;60625;51.212;5.952;2023-03-01T16:50:59;6.01;51.34
72591;SHT31;60625;51.212;5.952;2023-03-01T16:56:02;5.93;51.82
72591;SHT31;60625;51.212;5.952;2023-03-01T17:06:17;5.66;52.13
72591;SHT31;60625;51.212;5.952;2023-03-01T17:11:25;5.50;52.31
72591;SHT31;60625;51.212;5.952;2023-03-01T17:16:25;5.39;52.51
72591;SHT31;60625;51.212;5.952;2023-03-01T17:21:26;5.29;52.46
72591;SHT31;60625;51.212;5.952;2023-03-01T17:26:27;5.21;52.58
72591;SHT31;60625;51.212;5.952;2023-03-01T17:31:31;5.01;53.26
72591;SHT31;60625;51.212;5.952;2023-03-01T17:36:33;4.74;54.24
72591;SHT31;60625;51.212;5.952;2023-03-01T17:41:43;4.54;54.79
72591;SHT31;60625;51.212;5.952;2023-03-01T17:46:43;4.45;55.03
72591;SHT31;60625;51.212;5.952;2023-03-01T17:51:44;4.35;55.19
72591;SHT31;60625;51.212;5.952;2023-03-01T17:56:44;4.32;55.09
72591;SHT31;60625;51.212;5.952;2023-03-01T18:01:45;4.28;55.28
72591;SHT31;60625;51.212;5.952;2023-03-01T18:06:46;4.21;55.25
72591;SHT31;60625;51.212;5.952;2023-03-01T18:11:46;4.15;55.41
72591;SHT31;60625;51.212;5.952;2023-03-01T18:16:47;4.03;55.87
72591;SHT31;60625;51.212;5.952;2023-03-01T18:21:47;3.93;56.08
72591;SHT31;60625;51.212;5.952;2023-03-01T18:26:48;3.85;56.40
72591;SHT31;60625;51.212;5.952;2023-03-01T18:31:48;3.77;56.71
72591;SHT31;60625;51.212;5.952;2023-03-01T18:36:49;3.68;57.26
72591;SHT31;60625;51.212;5.952;2023-03-01T18:41:54;3.56;57.87
72591;SHT31;60625;51.212;5.952;2023-03-01T18:46:55;3.42;58.42
72591;SHT31;60625;51.212;5.952;2023-03-01T18:51:57;3.36;58.42
72591;SHT31;60625;51.212;5.952;2023-03-01T18:56:57;3.32;58.60
72591;SHT31;60625;51.212;5.952;2023-03-01T19:01:58;3.27;58.83
72591;SHT31;60625;51.212;5.952;2023-03-01T19:06:58;3.24;59.07
72591;SHT31;60625;51.212;5.952;2023-03-01T19:12:01;3.15;59.43
72591;SHT31;60625;51.212;5.952;2023-03-01T19:17:03;2.99;59.90
72591;SHT31;60625;51.212;5.952;2023-03-01T19:22:04;2.89;60.07
72591;SHT31;60625;51.212;5.952;2023-03-01T19:27:06;2.85;60.14
72591;SHT31;60625;51.212;5.952;2023-03-01T19:32:07;2.81;60.33
72591;SHT31;60625;51.212;5.952;2023-03-01T19:37:07;2.73;60.71
72591;SHT31;60625;51.212;5.952;2023-03-01T19:42:09;2.71;60.67
72591;SHT31;60625;51.212;5.952;2023-03-01T19:47:10;2.67;60.88
72591;SHT31;60625;51.212;5.952;2023-03-01T19:52:11;2.58;61.44
72591;SHT31;60625;51.212;5.952;2023-03-01T19:57:11;2.49;61.90
72591;SHT31;60625;51.212;5.952;2023-03-01T20:02:12;2.42;62.37
72591;SHT31;60625;51.212;5.952;2023-03-01T20:07:12;2.38;62.24
72591;SHT31;60625;51.212;5.952;2023-03-01T20:12:13;2.41;61.92
72591;SHT31;60625;51.212;5.952;2023-03-01T20:17:14;2.44;61.77
72591;SHT31;60625;51.212;5.952;2023-03-01T20:22:14;2.41;61.83
72591;SHT31;60625;51.212;5.952;2023-03-01T20:27:14;2.32;61.92
72591;SHT31;60625;51.212;5.952;2023-03-01T20:32:15;2.22;62.28
72591;SHT31;60625;51.212;5.952;2023-03-01T20:37:15;2.11;62.74
72591;SHT31;60625;51.212;5.952;2023-03-01T20:42:16;1.99;63.56
72591;SHT31;60625;51.212;5.952;2023-03-01T20:47:17;1.93;63.88
72591;SHT31;60625;51.212;5.952;2023-03-01T20:52:20;1.94;63.71
72591;SHT31;60625;51.212;5.952;2023-03-01T20:57:20;1.93;63.53
72591;SHT31;60625;51.212;5.952;2023-03-01T21:02:21;1.91;63.68
72591;SHT31;60625;51.212;5.952;2023-03-01T21:07:21;1.91;63.87
72591;SHT31;60625;51.212;5.952;2023-03-01T21:12:21;1.87;64.07
72591;SHT31;60625;51.212;5.952;2023-03-01T21:17:22;1.90;63.63
72591;SHT31;60625;51.212;5.952;2023-03-01T21:22:23;1.97;63.40
72591;SHT31;60625;51.212;5.952;2023-03-01T21:27:23;1.96;63.33
72591;SHT31;60625;51.212;5.952;2023-03-01T21:32:24;1.98;63.24
72591;SHT31;60625;51.212;5.952;2023-03-01T21:37:24;2.02;63.17
72591;SHT31;60625;51.212;5.952;2023-03-01T21:42:27;2.01;63.20
72591;SHT31;60625;51.212;5.952;2023-03-01T21:47:31;1.93;63.47
72591;SHT31;60625;51.212;5.952;2023-03-01T21:52:33;1.85;63.67
72591;SHT31;60625;51.212;5.952;2023-03-01T21:57:34;1.81;63.65
72591;SHT31;60625;51.212;5.952;2023-03-01T22:02:42;1.75;63.84
72591;SHT31;60625;51.212;5.952;2023-03-01T22:07:43;1.64;64.12
72591;SHT31;60625;51.212;5.952;2023-03-01T22:12:43;1.50;64.51
72591;SHT31;60625;51.212;5.952;2023-03-01T22:17:44;1.41;64.71
72591;SHT31;60625;51.212;5.952;2023-03-01T22:22:44;1.35;64.94
72591;SHT31;60625;51.212;5.952;2023-03-01T22:27:45;1.27;65.31
72591;SHT31;60625;51.212;5.952;2023-03-01T22:32:46;1.17;65.76
72591;SHT31;60625;51.212;5.952;2023-03-01T22:37:46;1.12;66.11
72591;SHT31;60625;51.212;5.952;2023-03-01T22:42:46;1.05;66.43
72591;SHT31;60625;51.212;5.952;2023-03-01T22:47:47;1.02;66.45
72591;SHT31;60625;51.212;5.952;2023-03-01T22:52:48;1.04;66.46
72591;SHT31;60625;51.212;5.952;2023-03-01T22:57:49;1.04;66.72
72591;SHT31;60625;51.212;5.952;2023-03-01T23:02:50;1.03;66.89
72591;SHT31;60625;51.212;5.952;2023-03-01T23:07:51;1.05;66.94
72591;SHT31;60625;51.212;5.952;2023-03-01T23:12:55;1.04;67.05
72591;SHT31;60625;51.212;5.952;2023-03-01T23:17:56;1.02;66.93
72591;SHT31;60625;51.212;5.952;2023-03-01T23:22:56;1.06;66.79
72591;SHT31;60625;51.212;5.952;2023-03-01T23:28:00;1.13;66.50
72591;SHT31;60625;51.212;5.952;2023-03-01T23:33:01;1.18;66.27
72591;SHT31;60625;51.212;5.952;2023-03-01T23:38:01;1.23;66.01
72591;SHT31;60625;51.212;5.952;2023-03-01T23:43:02;1.24;65.96
72591;SHT31;60625;51.212;5.952;2023-03-01T23:48:03;1.26;65.74
72591;SHT31;60625;51.212;5.952;2023-03-01T23:53:04;1.29;65.61
72591;SHT31;60625;51.212;5.952;2023-03-01T23:58:04;1.29;65.54
